Terminal Aerodrome Forecast
Issued by NWS Quad Cities IA IL

Home | Current Version | Previous Version | Graphics & Text | Print | Product List | Glossary On
Versions: 1 2 3 4 5 6 7 8 9 10 11 12 13 14 15 16 17 18
000
FTUS43 KDVN 171200 AAA
TAFMLI
TAF AMD
KMLI 171237Z 1713/1812 28014G20KT P6SM SCT015 BKN025
      TEMPO 1713/1715 BKN015
     FM171600 32012KT P6SM BKN150
     FM180300 VRB04KT P6SM SCT250=

USA.gov is the U.S. government's official web portal to all federal, state and local government web resources and services.